Time;durP1;ratioP1;P1;durP2;ratioP2;P2;SDS_P1;SDS_P2;PMS_P1;PMS_P2;Temp;Humidity;BMP_temperature;BMP_pressure;BME280_temperature;BME280_humidity;BME280_pressure;Samples;Min_cycle;Max_cycle;Signal;HPM_P1;HPM_P2
2023/06/24 00:01:27;;;;;;;5.22;3.28;;;;;;;;;;5033354;28;20100;-77
2023/06/24 00:03:53;;;;;;;5.22;3.70;;;;;;;;;;5032694;28;20049;-77
2023/06/24 00:06:22;;;;;;;5.55;3.58;;;;;;;;;;5023998;28;20049;-77
2023/06/24 00:08:49;;;;;;;5.75;3.17;;;;;;;;;;5032474;28;20492;-77
2023/06/24 00:11:16;;;;;;;5.00;3.33;;;;;;;;;;5033635;28;20053;-77
2023/06/24 00:13:43;;;;;;;6.00;3.10;;;;;;;;;;5033137;28;20411;-77
2023/06/24 00:16:11;;;;;;;5.78;3.95;;;;;;;;;;5019064;28;20052;-77
2023/06/24 00:18:41;;;;;;;5.88;3.50;;;;;;;;;;5012926;28;20050;-77
2023/06/24 00:21:08;;;;;;;5.32;3.55;;;;;;;;;;5019265;28;20102;-77
2023/06/24 00:23:35;;;;;;;5.28;3.35;;;;;;;;;;5032141;28;20052;-77
2023/06/24 00:26:02;;;;;;;5.50;3.60;;;;;;;;;;5026376;28;20575;-77
2023/06/24 00:28:29;;;;;;;5.38;3.35;;;;;;;;;;5032337;28;20129;-77
2023/06/24 00:30:55;;;;;;;7.05;3.72;;;;;;;;;;5033249;28;20060;-76
2023/06/24 00:33:22;;;;;;;5.95;3.47;;;;;;;;;;5032504;28;20488;-77
2023/06/24 00:35:50;;;;;;;5.80;3.53;;;;;;;;;;5032812;28;20056;-77
2023/06/24 00:38:17;;;;;;;5.53;3.78;;;;;;;;;;5031706;28;20086;-77
2023/06/24 00:40:46;;;;;;;5.63;3.97;;;;;;;;;;5032286;28;20492;-78
2023/06/24 00:43:13;;;;;;;5.38;3.40;;;;;;;;;;5019650;28;20431;-77
2023/06/24 00:45:40;;;;;;;5.03;3.33;;;;;;;;;;5032693;28;20512;-77
2023/06/24 00:48:07;;;;;;;5.55;3.72;;;;;;;;;;5035183;28;20487;-77
2023/06/24 00:50:35;;;;;;;5.07;3.30;;;;;;;;;;5036530;28;20129;-77
2023/06/24 00:53:03;;;;;;;5.82;3.50;;;;;;;;;;5036410;28;20093;-77
2023/06/24 00:55:30;;;;;;;5.10;3.40;;;;;;;;;;5087584;22;20053;-75
2023/06/24 00:57:59;;;;;;;5.57;3.00;;;;;;;;;;5059965;28;20041;-76
2023/06/24 01:00:26;;;;;;;5.68;3.40;;;;;;;;;;5060183;28;20045;-77
2023/06/24 01:02:53;;;;;;;5.00;3.50;;;;;;;;;;5062122;28;20495;-76
2023/06/24 01:05:23;;;;;;;5.95;4.15;;;;;;;;;;5060460;28;20066;-76
2023/06/24 01:07:54;;;;;;;5.57;3.60;;;;;;;;;;5062611;28;20037;-77
2023/06/24 01:10:24;;;;;;;5.60;3.63;;;;;;;;;;5061117;28;20045;-76
2023/06/24 01:12:50;;;;;;;5.20;3.30;;;;;;;;;;5060794;28;20052;-76
2023/06/24 01:15:19;;;;;;;5.07;3.00;;;;;;;;;;5060881;28;20047;-76
2023/06/24 01:17:54;;;;;;;5.97;3.30;;;;;;;;;;5062495;28;20047;-77
2023/06/24 01:20:28;;;;;;;6.13;3.80;;;;;;;;;;5063637;28;20136;-77
2023/06/24 01:23:21;;;;;;;5.65;4.00;;;;;;;;;;5061580;28;20049;-76
2023/06/24 01:26:01;;;;;;;6.55;3.78;;;;;;;;;;5053944;28;20044;-76
2023/06/24 01:28:42;;;;;;;5.63;3.28;;;;;;;;;;5060992;28;20120;-76
2023/06/24 01:31:34;;;;;;;5.35;3.28;;;;;;;;;;5060772;28;20131;-76
2023/06/24 01:34:07;;;;;;;5.28;3.33;;;;;;;;;;5060235;28;20128;-77
2023/06/24 01:36:37;;;;;;;5.22;3.20;;;;;;;;;;5060557;28;20053;-77
2023/06/24 01:39:07;;;;;;;4.93;3.10;;;;;;;;;;5060257;28;20131;-77
2023/06/24 01:41:39;;;;;;;5.82;3.47;;;;;;;;;;5060219;28;20054;-77
2023/06/24 01:44:06;;;;;;;5.57;3.53;;;;;;;;;;5060300;28;20051;-76
2023/06/24 01:46:33;;;;;;;5.25;3.35;;;;;;;;;;5060273;28;20048;-76
2023/06/24 01:49:03;;;;;;;4.88;3.13;;;;;;;;;;5059914;28;20055;-77
2023/06/24 01:51:32;;;;;;;5.00;3.43;;;;;;;;;;5059308;28;20051;-76
2023/06/24 01:54:03;;;;;;;6.22;3.58;;;;;;;;;;5060005;28;20041;-76
2023/06/24 01:56:31;;;;;;;5.70;3.40;;;;;;;;;;5060135;28;20055;-77
2023/06/24 01:59:01;;;;;;;5.43;3.15;;;;;;;;;;5060118;28;20054;-76
2023/06/24 02:01:30;;;;;;;5.28;3.45;;;;;;;;;;5060376;28;20403;-77
2023/06/24 02:03:59;;;;;;;7.10;3.70;;;;;;;;;;5060639;28;20245;-76
2023/06/24 02:06:29;;;;;;;5.23;3.20;;;;;;;;;;5059700;28;20391;-77
2023/06/24 02:08:58;;;;;;;6.13;3.43;;;;;;;;;;5059793;28;20095;-77
2023/06/24 02:11:26;;;;;;;5.25;3.50;;;;;;;;;;5060298;28;20094;-77
2023/06/24 02:13:55;;;;;;;5.63;3.30;;;;;;;;;;5060047;28;20049;-77
2023/06/24 02:16:22;;;;;;;4.88;3.13;;;;;;;;;;5059225;28;20532;-77
2023/06/24 02:18:49;;;;;;;4.70;3.08;;;;;;;;;;5059828;28;20478;-76
2023/06/24 02:21:19;;;;;;;4.95;3.53;;;;;;;;;;5060712;28;20047;-76
2023/06/24 02:23:47;;;;;;;5.90;3.30;;;;;;;;;;5060483;28;20044;-77
2023/06/24 02:26:14;;;;;;;5.47;3.38;;;;;;;;;;5060206;28;20041;-76
2023/06/24 02:28:42;;;;;;;5.43;3.80;;;;;;;;;;5059292;28;20139;-77
2023/06/24 02:31:10;;;;;;;5.75;3.30;;;;;;;;;;5062505;28;20155;-76
2023/06/24 02:33:37;;;;;;;5.65;3.22;;;;;;;;;;5058612;28;20041;-77
2023/06/24 02:36:04;;;;;;;4.72;3.22;;;;;;;;;;5073100;28;20499;-76
2023/06/24 02:38:32;;;;;;;5.82;3.53;;;;;;;;;;5073245;28;20084;-77
2023/06/24 02:41:00;;;;;;;5.38;3.58;;;;;;;;;;5072967;28;20072;-77
2023/06/24 02:43:26;;;;;;;7.03;3.80;;;;;;;;;;5062574;28;20053;-76
2023/06/24 02:45:54;;;;;;;6.22;3.67;;;;;;;;;;5053087;28;20053;-75
2023/06/24 02:48:22;;;;;;;5.45;3.17;;;;;;;;;;5052991;28;20171;-76
2023/06/24 02:50:49;;;;;;;5.55;3.45;;;;;;;;;;5056439;28;20504;-75
2023/06/24 02:53:17;;;;;;;5.13;3.35;;;;;;;;;;5052911;28;20114;-76
2023/06/24 02:55:46;;;;;;;6.40;3.65;;;;;;;;;;5052264;28;20049;-76
2023/06/24 02:58:14;;;;;;;5.20;3.47;;;;;;;;;;5064011;28;20117;-77
2023/06/24 03:00:40;;;;;;;5.32;3.53;;;;;;;;;;5063795;28;20497;-76
2023/06/24 03:03:07;;;;;;;5.97;3.83;;;;;;;;;;5059681;28;20037;-76
2023/06/24 03:05:37;;;;;;;5.20;3.60;;;;;;;;;;5062715;28;20048;-76
2023/06/24 03:08:04;;;;;;;5.68;3.63;;;;;;;;;;5058623;28;20052;-76
2023/06/24 03:10:31;;;;;;;5.53;3.65;;;;;;;;;;5062838;28;20454;-75
2023/06/24 03:12:59;;;;;;;6.15;3.83;;;;;;;;;;5066940;28;20055;-77
2023/06/24 03:15:25;;;;;;;5.28;3.50;;;;;;;;;;5061343;28;20041;-76
2023/06/24 03:17:52;;;;;;;6.32;4.00;;;;;;;;;;5060130;28;20088;-77
2023/06/24 03:20:20;;;;;;;6.85;4.07;;;;;;;;;;5066194;28;20087;-76
2023/06/24 03:22:46;;;;;;;5.60;3.80;;;;;;;;;;5062403;28;20041;-76
2023/06/24 03:25:13;;;;;;;6.82;4.15;;;;;;;;;;5060106;28;20392;-77
2023/06/24 03:27:39;;;;;;;6.60;3.90;;;;;;;;;;5066255;28;20495;-77
2023/06/24 03:30:09;;;;;;;5.82;3.88;;;;;;;;;;5067874;28;20045;-76
2023/06/24 03:32:36;;;;;;;8.05;4.88;;;;;;;;;;5072446;28;20052;-76
2023/06/24 03:35:03;;;;;;;6.35;3.50;;;;;;;;;;5072012;28;20151;-76
2023/06/24 03:37:29;;;;;;;5.97;3.80;;;;;;;;;;5071798;28;20049;-76
2023/06/24 03:39:57;;;;;;;6.53;3.42;;;;;;;;;;5063216;28;20513;-75
2023/06/24 03:42:23;;;;;;;5.63;3.67;;;;;;;;;;5072139;28;20041;-76
2023/06/24 03:44:50;;;;;;;4.72;3.22;;;;;;;;;;5071776;28;20054;-76
2023/06/24 03:47:18;;;;;;;5.40;3.67;;;;;;;;;;5063690;28;20132;-77
2023/06/24 03:49:44;;;;;;;5.03;2.80;;;;;;;;;;5053156;28;20064;-76
2023/06/24 03:52:11;;;;;;;4.88;2.92;;;;;;;;;;5067105;28;20150;-76
2023/06/24 03:54:38;;;;;;;5.78;3.20;;;;;;;;;;5060517;28;20136;-76
2023/06/24 03:57:06;;;;;;;6.32;3.58;;;;;;;;;;5059899;28;20045;-76
2023/06/24 03:59:32;;;;;;;4.70;2.92;;;;;;;;;;5062582;28;20072;-76
2023/06/24 04:01:59;;;;;;;5.40;3.28;;;;;;;;;;5055973;28;20068;-75
2023/06/24 04:04:27;;;;;;;5.88;3.30;;;;;;;;;;5065288;28;20045;-75
2023/06/24 04:06:54;;;;;;;5.07;3.35;;;;;;;;;;5059895;28;20049;-76
2023/06/24 04:09:22;;;;;;;6.80;3.50;;;;;;;;;;5058650;28;20040;-76
2023/06/24 04:11:48;;;;;;;6.07;3.45;;;;;;;;;;5051390;28;20049;-76
2023/06/24 04:14:15;;;;;;;4.60;3.00;;;;;;;;;;5051595;28;20063;-76
2023/06/24 04:16:42;;;;;;;4.85;3.03;;;;;;;;;;5051480;28;20086;-77
2023/06/24 04:19:09;;;;;;;5.38;3.35;;;;;;;;;;5057098;28;20041;-76
2023/06/24 04:21:37;;;;;;;6.45;3.70;;;;;;;;;;5061988;28;20041;-76
2023/06/24 04:24:04;;;;;;;5.82;3.17;;;;;;;;;;5066875;28;20056;-76
2023/06/24 04:26:31;;;;;;;5.72;3.47;;;;;;;;;;5067174;28;20121;-76
2023/06/24 04:28:58;;;;;;;5.07;3.33;;;;;;;;;;5073946;28;20041;-76
2023/06/24 04:31:25;;;;;;;5.07;3.13;;;;;;;;;;5067182;28;20040;-76
2023/06/24 04:33:52;;;;;;;5.43;3.42;;;;;;;;;;5075502;28;20076;-76
2023/06/24 04:36:18;;;;;;;5.38;3.20;;;;;;;;;;5075675;28;20083;-76
2023/06/24 04:38:46;;;;;;;5.57;3.40;;;;;;;;;;5075079;28;20049;-77
2023/06/24 04:41:13;;;;;;;5.22;3.42;;;;;;;;;;5070057;28;20048;-76
2023/06/24 04:43:39;;;;;;;5.13;3.00;;;;;;;;;;5075224;28;20140;-76
2023/06/24 04:46:06;;;;;;;5.32;3.08;;;;;;;;;;5075001;28;20532;-76
2023/06/24 04:48:33;;;;;;;5.32;3.28;;;;;;;;;;5074876;28;20124;-76
2023/06/24 04:50:59;;;;;;;5.38;3.05;;;;;;;;;;5066659;28;20119;-75
2023/06/24 04:53:26;;;;;;;6.18;3.00;;;;;;;;;;5055357;28;20041;-76
2023/06/24 04:55:54;;;;;;;4.88;3.15;;;;;;;;;;5054843;28;20132;-77
2023/06/24 04:58:20;;;;;;;5.75;3.10;;;;;;;;;;5059143;28;20128;-77
2023/06/24 05:00:47;;;;;;;4.75;3.47;;;;;;;;;;5072252;28;20041;-77
2023/06/24 05:03:13;;;;;;;5.63;3.25;;;;;;;;;;5060087;28;20041;-79
2023/06/24 05:05:40;;;;;;;5.38;3.38;;;;;;;;;;5063565;28;20059;-77
2023/06/24 05:08:07;;;;;;;5.20;3.15;;;;;;;;;;5062692;28;20132;-76
2023/06/24 05:10:33;;;;;;;5.55;3.05;;;;;;;;;;5054253;28;20049;-76
2023/06/24 05:13:01;;;;;;;5.45;3.20;;;;;;;;;;5062664;28;20128;-76
2023/06/24 05:15:28;;;;;;;5.43;3.35;;;;;;;;;;5054242;28;20131;-76
2023/06/24 05:17:54;;;;;;;5.55;3.08;;;;;;;;;;5054512;28;20049;-76
2023/06/24 05:20:21;;;;;;;5.15;3.30;;;;;;;;;;5054231;28;20579;-76
2023/06/24 05:22:48;;;;;;;6.30;3.42;;;;;;;;;;5058805;28;20045;-76
2023/06/24 05:25:14;;;;;;;5.28;3.25;;;;;;;;;;5075022;28;20135;-77
2023/06/24 05:27:41;;;;;;;6.20;3.30;;;;;;;;;;5078295;28;20045;-77
2023/06/24 05:30:10;;;;;;;6.03;3.38;;;;;;;;;;5062708;28;20105;-76
2023/06/24 05:32:37;;;;;;;5.20;3.28;;;;;;;;;;5062079;28;20128;-76
2023/06/24 05:35:04;;;;;;;5.03;3.45;;;;;;;;;;5062467;28;20075;-76
2023/06/24 05:37:30;;;;;;;5.00;3.33;;;;;;;;;;5057370;28;20057;-76
2023/06/24 05:40:01;;;;;;;4.82;3.03;;;;;;;;;;5073529;28;20075;-76
2023/06/24 05:42:27;;;;;;;;;;;;;;;;;;5066031;28;20049;-77
2023/06/24 05:44:54;;;;;;;5.35;2.97;;;;;;;;;;5065738;28;19921;-76
2023/06/24 05:47:22;;;;;;;5.38;3.22;;;;;;;;;;5065175;28;20049;-76
2023/06/24 05:49:48;;;;;;;6.22;3.25;;;;;;;;;;5069263;28;20036;-76
2023/06/24 05:52:15;;;;;;;5.63;3.40;;;;;;;;;;5073162;28;20578;-76
2023/06/24 05:54:41;;;;;;;5.43;3.17;;;;;;;;;;5065506;28;20048;-76
2023/06/24 05:57:10;;;;;;;5.38;3.20;;;;;;;;;;5068084;28;20080;-76
2023/06/24 05:59:36;;;;;;;5.10;3.22;;;;;;;;;;5060835;28;20169;-76
2023/06/24 06:02:03;;;;;;;4.63;3.05;;;;;;;;;;5061784;28;20049;-76
2023/06/24 06:04:31;;;;;;;4.90;3.15;;;;;;;;;;5064168;28;20123;-76
2023/06/24 06:06:57;;;;;;;5.28;3.00;;;;;;;;;;5061585;28;20061;-76
2023/06/24 06:09:24;;;;;;;4.60;3.20;;;;;;;;;;5061403;28;20055;-77
2023/06/24 06:11:50;;;;;;;6.03;3.40;;;;;;;;;;5058255;28;20049;-77
2023/06/24 06:14:17;;;;;;;5.20;3.30;;;;;;;;;;5065439;28;20051;-76
2023/06/24 06:16:44;;;;;;;5.28;3.70;;;;;;;;;;5054615;28;20052;-76
2023/06/24 06:19:10;;;;;;;5.35;3.08;;;;;;;;;;5057635;28;20502;-76
2023/06/24 06:21:38;;;;;;;5.43;3.47;;;;;;;;;;5058767;28;20127;-76
2023/06/24 06:24:06;;;;;;;5.78;3.25;;;;;;;;;;5054764;28;20076;-77
2023/06/24 06:26:32;;;;;;;4.47;2.95;;;;;;;;;;5054335;28;20136;-77
2023/06/24 06:28:59;;;;;;;5.72;2.95;;;;;;;;;;5054244;28;20136;-76
2023/06/24 06:31:26;;;;;;;4.82;3.22;;;;;;;;;;5062384;28;20143;-77
2023/06/24 06:33:52;;;;;;;4.50;2.63;;;;;;;;;;5054210;28;20080;-76
2023/06/24 06:36:19;;;;;;;4.80;3.13;;;;;;;;;;5054229;28;20085;-77
2023/06/24 06:38:47;;;;;;;4.95;3.10;;;;;;;;;;5053751;28;20462;-76
2023/06/24 06:41:14;;;;;;;5.88;3.05;;;;;;;;;;5062198;28;20079;-76
2023/06/24 06:43:40;;;;;;;4.75;2.80;;;;;;;;;;5057153;28;20053;-76
2023/06/24 06:46:07;;;;;;;4.82;2.42;;;;;;;;;;5066087;28;20055;-77
2023/06/24 06:48:34;;;;;;;4.90;2.58;;;;;;;;;;5063361;28;20132;-76
2023/06/24 06:51:00;;;;;;;4.80;3.00;;;;;;;;;;5060869;28;20045;-77
2023/06/24 06:53:27;;;;;;;4.45;3.13;;;;;;;;;;5058087;28;20474;-76
2023/06/24 06:55:55;;;;;;;4.68;2.83;;;;;;;;;;5062072;28;20045;-76
2023/06/24 06:58:21;;;;;;;8.02;3.03;;;;;;;;;;5085998;22;20052;-77
2023/06/24 07:00:48;;;;;;;4.85;2.90;;;;;;;;;;5074846;28;20121;-77
2023/06/24 07:03:15;;;;;;;4.28;2.63;;;;;;;;;;5075298;28;20136;-77
2023/06/24 07:05:42;;;;;;;4.28;2.63;;;;;;;;;;5076295;28;20594;-77
2023/06/24 07:08:09;;;;;;;4.53;2.70;;;;;;;;;;5082038;28;20047;-77
2023/06/24 07:10:36;;;;;;;5.38;3.00;;;;;;;;;;5091562;28;20041;-77
2023/06/24 07:13:04;;;;;;;5.13;2.60;;;;;;;;;;5074575;28;20124;-77
2023/06/24 07:15:30;;;;;;;4.20;2.53;;;;;;;;;;5073124;28;20053;-78
2023/06/24 07:17:57;;;;;;;4.82;2.60;;;;;;;;;;5073697;28;20066;-76
2023/06/24 07:20:24;;;;;;;4.28;2.90;;;;;;;;;;5073854;28;20132;-77
2023/06/24 07:22:51;;;;;;;4.75;2.83;;;;;;;;;;5055493;28;20055;-77
2023/06/24 07:25:18;;;;;;;5.03;2.72;;;;;;;;;;5067987;28;20128;-76
2023/06/24 07:27:45;;;;;;;5.13;2.85;;;;;;;;;;5060912;28;20503;-77
2023/06/24 07:30:13;;;;;;;5.50;3.08;;;;;;;;;;5061089;28;20115;-76
2023/06/24 07:32:40;;;;;;;4.85;2.65;;;;;;;;;;5053400;28;20075;-77
2023/06/24 07:35:07;;;;;;;5.25;2.95;;;;;;;;;;5060350;28;20045;-76
2023/06/24 07:37:35;;;;;;;4.72;2.85;;;;;;;;;;5058560;28;20048;-77
2023/06/24 07:40:03;;;;;;;4.13;2.55;;;;;;;;;;5058419;28;20095;-76
2023/06/24 07:42:29;;;;;;;4.63;2.92;;;;;;;;;;5058839;28;20538;-76
2023/06/24 07:44:56;;;;;;;4.50;2.60;;;;;;;;;;5066814;28;20045;-76
2023/06/24 07:47:24;;;;;;;5.18;3.00;;;;;;;;;;5064202;28;20045;-77
2023/06/24 07:49:51;;;;;;;5.32;3.33;;;;;;;;;;5070456;28;20135;-76
2023/06/24 07:52:17;;;;;;;5.13;2.83;;;;;;;;;;5056758;28;20049;-76
2023/06/24 07:54:44;;;;;;;5.60;3.08;;;;;;;;;;5053225;28;20108;-76
2023/06/24 07:57:11;;;;;;;4.93;3.05;;;;;;;;;;5063779;28;20131;-78
2023/06/24 07:59:37;;;;;;;6.38;3.70;;;;;;;;;;5077963;28;20045;-79
2023/06/24 08:02:04;;;;;;;4.88;3.25;;;;;;;;;;5074361;28;20128;-79
2023/06/24 08:04:32;;;;;;;6.18;3.05;;;;;;;;;;5076747;28;20518;-78
2023/06/24 08:06:59;;;;;;;5.57;3.22;;;;;;;;;;5066428;28;20067;-78
2023/06/24 08:09:26;;;;;;;5.40;3.40;;;;;;;;;;5062389;28;20045;-77
2023/06/24 08:11:53;;;;;;;4.88;3.08;;;;;;;;;;5069573;28;20059;-76
2023/06/24 08:14:19;;;;;;;4.70;2.78;;;;;;;;;;5074805;28;20084;-76
2023/06/24 08:16:46;;;;;;;6.63;3.28;;;;;;;;;;5062315;28;20499;-75
2023/06/24 08:19:13;;;;;;;5.00;3.03;;;;;;;;;;5063103;28;20041;-77
2023/06/24 08:21:41;;;;;;;5.43;3.13;;;;;;;;;;5063032;28;20077;-76
2023/06/24 08:24:08;;;;;;;5.53;3.35;;;;;;;;;;5068694;28;20071;-77
2023/06/24 08:26:35;;;;;;;5.50;3.55;;;;;;;;;;5054443;28;20041;-75
2023/06/24 08:29:01;;;;;;;5.25;3.33;;;;;;;;;;5060722;28;20316;-76
2023/06/24 08:31:28;;;;;;;5.20;3.45;;;;;;;;;;5059282;28;20132;-75
2023/06/24 08:33:55;;;;;;;5.35;3.28;;;;;;;;;;5058203;28;20045;-75
2023/06/24 08:36:24;;;;;;;6.00;3.60;;;;;;;;;;5068868;28;20100;-79
2023/06/24 08:38:52;;;;;;;5.53;3.67;;;;;;;;;;5056532;28;20068;-76
2023/06/24 08:41:19;;;;;;;6.15;4.03;;;;;;;;;;5065042;28;20090;-76
2023/06/24 08:43:45;;;;;;;5.93;3.78;;;;;;;;;;5073279;28;20051;-76
2023/06/24 08:46:17;;;;;;;7.55;4.22;;;;;;;;;;5078071;28;20076;-77
2023/06/24 08:48:46;;;;;;;7.97;5.00;;;;;;;;;;5074752;28;20051;-78
2023/06/24 08:51:18;;;;;;;9.65;6.05;;;;;;;;;;5076305;28;20051;-77
2023/06/24 08:53:48;;;;;;;7.93;5.10;;;;;;;;;;5080884;28;20048;-76
2023/06/24 08:56:17;;;;;;;6.55;4.18;;;;;;;;;;5081220;28;20132;-77
2023/06/24 08:58:45;;;;;;;8.73;5.90;;;;;;;;;;5075999;28;20078;-76
2023/06/24 09:01:12;;;;;;;6.10;4.38;;;;;;;;;;5073236;28;20053;-77
2023/06/24 09:03:39;;;;;;;6.60;3.38;;;;;;;;;;5065660;28;20044;-80
2023/06/24 09:06:06;;;;;;;5.70;3.60;;;;;;;;;;5055957;28;20041;-77
2023/06/24 09:08:35;;;;;;;6.57;4.00;;;;;;;;;;5058314;28;20049;-76
2023/06/24 09:11:02;;;;;;;7.18;4.15;;;;;;;;;;5055935;28;20063;-76
2023/06/24 09:13:36;;;;;;;7.18;3.95;;;;;;;;;;5055137;28;20454;-77
2023/06/24 09:16:14;;;;;;;6.25;4.40;;;;;;;;;;5054932;28;20526;-77
2023/06/24 09:18:40;;;;;;;8.23;5.10;;;;;;;;;;5055017;28;20118;-77
2023/06/24 09:21:08;;;;;;;5.88;4.40;;;;;;;;;;5055078;28;20048;-77
2023/06/24 09:23:37;;;;;;;6.50;4.13;;;;;;;;;;5055088;28;20132;-77
2023/06/24 09:26:04;;;;;;;7.05;4.88;;;;;;;;;;5055010;28;20506;-76
2023/06/24 09:28:31;;;;;;;5.80;3.90;;;;;;;;;;5055311;28;20045;-77
2023/06/24 09:31:09;;;;;;;6.28;4.03;;;;;;;;;;5056677;28;20124;-77
2023/06/24 09:33:36;;;;;;;5.90;3.80;;;;;;;;;;5054665;28;20055;-76
2023/06/24 09:36:04;;;;;;;5.75;3.90;;;;;;;;;;5054558;28;20079;-76
2023/06/24 09:38:36;;;;;;;5.80;4.30;;;;;;;;;;5054289;28;20052;-77
2023/06/24 09:41:05;;;;;;;6.32;3.95;;;;;;;;;;5054003;28;20053;-77
2023/06/24 09:43:35;;;;;;;7.15;5.03;;;;;;;;;;5054323;28;20056;-75
2023/06/24 09:46:03;;;;;;;6.72;4.30;;;;;;;;;;5061672;28;20041;-76
2023/06/24 09:48:31;;;;;;;8.80;5.50;;;;;;;;;;5062215;28;20051;-77
2023/06/24 09:51:00;;;;;;;6.05;4.32;;;;;;;;;;5054475;28;20041;-75
2023/06/24 09:53:28;;;;;;;7.03;4.30;;;;;;;;;;5054144;28;20041;-77
2023/06/24 09:55:54;;;;;;;6.63;4.30;;;;;;;;;;5054267;28;20513;-76
2023/06/24 09:58:22;;;;;;;6.35;5.03;;;;;;;;;;5053886;28;20139;-75
2023/06/24 10:00:50;;;;;;;6.78;4.95;;;;;;;;;;5053621;28;20072;-78
2023/06/24 10:03:17;;;;;;;6.47;4.68;;;;;;;;;;5053074;28;20051;-76
2023/06/24 10:05:45;;;;;;;6.43;4.30;;;;;;;;;;5054064;28;20048;-77
2023/06/24 10:08:14;;;;;;;6.82;4.25;;;;;;;;;;5053679;28;20055;-76
2023/06/24 10:10:41;;;;;;;13.93;10.38;;;;;;;;;;5054132;28;20087;-79
2023/06/24 10:13:08;;;;;;;6.38;4.75;;;;;;;;;;5055090;28;20136;-77
2023/06/24 10:15:36;;;;;;;6.18;4.13;;;;;;;;;;5060406;28;20048;-77
2023/06/24 10:18:03;;;;;;;5.55;3.60;;;;;;;;;;5059958;28;20430;-77
2023/06/24 10:20:30;;;;;;;5.90;3.83;;;;;;;;;;5055825;28;20071;-77
2023/06/24 10:22:59;;;;;;;5.75;3.53;;;;;;;;;;5054049;28;20485;-76
2023/06/24 10:25:37;;;;;;;6.75;3.70;;;;;;;;;;5053520;28;20049;-76
2023/06/24 10:28:03;;;;;;;13.55;4.32;;;;;;;;;;5055499;28;20443;-78
2023/06/24 10:30:33;;;;;;;5.85;3.33;;;;;;;;;;5073458;28;20052;-77
2023/06/24 10:32:59;;;;;;;5.57;3.75;;;;;;;;;;5071956;28;20068;-76
2023/06/24 10:35:29;;;;;;;5.97;3.90;;;;;;;;;;5072778;28;20597;-76
2023/06/24 10:37:58;;;;;;;;;;;;;;;;;;5073690;28;20503;-76
2023/06/24 10:40:37;;;;;;;5.55;3.92;;;;;;;;;;5073862;28;20389;-77
2023/06/24 10:43:28;;;;;;;5.35;3.65;;;;;;;;;;5074410;28;20067;-77
2023/06/24 10:45:57;;;;;;;5.00;3.22;;;;;;;;;;5074306;28;20084;-79
2023/06/24 10:48:24;;;;;;;7.57;4.07;;;;;;;;;;5075904;28;22011;-78
2023/06/24 10:50:50;;;;;;;5.57;3.40;;;;;;;;;;5075897;28;20067;-78
2023/06/24 10:53:19;;;;;;;6.15;4.10;;;;;;;;;;5076081;28;20127;-78
2023/06/24 10:55:46;;;;;;;6.22;4.10;;;;;;;;;;5073153;28;20049;-77
2023/06/24 10:58:15;;;;;;;5.07;3.60;;;;;;;;;;5072724;28;20048;-78
2023/06/24 11:00:43;;;;;;;5.28;3.63;;;;;;;;;;5073293;28;20102;-78
2023/06/24 11:03:10;;;;;;;5.50;3.63;;;;;;;;;;5068547;28;20408;-77
2023/06/24 11:05:39;;;;;;;6.60;3.55;;;;;;;;;;5053374;28;20463;-76
2023/06/24 11:08:06;;;;;;;4.90;3.65;;;;;;;;;;5053033;28;20045;-77
2023/06/24 11:10:34;;;;;;;6.07;3.60;;;;;;;;;;5052203;28;20053;-76
2023/06/24 11:13:06;;;;;;;5.70;3.20;;;;;;;;;;5053359;28;20151;-77
2023/06/24 11:15:34;;;;;;;4.18;2.88;;;;;;;;;;5052828;28;20056;-76
2023/06/24 11:18:03;;;;;;;5.18;3.50;;;;;;;;;;5052579;28;20048;-76
2023/06/24 11:20:30;;;;;;;6.68;3.70;;;;;;;;;;5052785;28;20060;-76
2023/06/24 11:22:57;;;;;;;5.45;3.13;;;;;;;;;;5052896;28;20080;-76
2023/06/24 11:25:23;;;;;;;5.85;3.40;;;;;;;;;;5052743;28;20136;-77
2023/06/24 11:27:53;;;;;;;4.38;3.10;;;;;;;;;;5052481;28;20045;-76
2023/06/24 11:30:20;;;;;;;4.85;3.17;;;;;;;;;;5051963;28;20095;-76
2023/06/24 11:32:47;;;;;;;4.78;3.40;;;;;;;;;;5052539;28;20064;-77
2023/06/24 11:35:15;;;;;;;5.00;3.53;;;;;;;;;;5052617;28;20041;-77
2023/06/24 11:37:43;;;;;;;5.38;3.40;;;;;;;;;;5052358;28;20045;-76
2023/06/24 11:40:11;;;;;;;6.65;3.55;;;;;;;;;;5052417;28;20053;-77
2023/06/24 11:42:39;;;;;;;9.95;5.85;;;;;;;;;;5052476;28;20400;-77
2023/06/24 11:45:09;;;;;;;6.22;4.18;;;;;;;;;;5051865;28;20041;-77
2023/06/24 11:47:40;;;;;;;6.40;4.05;;;;;;;;;;5052234;28;20481;-76
2023/06/24 11:50:08;;;;;;;6.30;4.00;;;;;;;;;;5052048;28;20041;-77
2023/06/24 11:52:41;;;;;;;6.30;4.55;;;;;;;;;;5052344;28;20143;-76
2023/06/24 11:55:18;;;;;;;6.05;3.30;;;;;;;;;;5052697;28;20075;-77
2023/06/24 11:57:51;;;;;;;5.88;3.85;;;;;;;;;;5051582;28;20538;-76
2023/06/24 12:00:21;;;;;;;5.25;3.75;;;;;;;;;;5052093;28;20056;-77
2023/06/24 12:02:51;;;;;;;5.25;3.33;;;;;;;;;;5054498;28;20135;-75
2023/06/24 12:05:25;;;;;;;4.95;3.85;;;;;;;;;;5076789;28;20227;-77
2023/06/24 12:07:56;;;;;;;4.68;3.40;;;;;;;;;;5072429;28;20503;-78
2023/06/24 12:10:24;;;;;;;4.32;3.35;;;;;;;;;;5072453;28;20041;-77
2023/06/24 12:12:50;;;;;;;5.20;3.70;;;;;;;;;;5072699;28;20051;-77
2023/06/24 12:15:19;;;;;;;5.40;3.40;;;;;;;;;;5071974;28;20080;-78
2023/06/24 12:17:45;;;;;;;5.15;3.40;;;;;;;;;;5072397;28;20461;-77
2023/06/24 12:20:14;;;;;;;5.47;3.83;;;;;;;;;;5074989;28;20080;-76
2023/06/24 12:22:40;;;;;;;5.13;3.30;;;;;;;;;;5074107;28;20052;-75
2023/06/24 12:25:08;;;;;;;6.43;4.72;;;;;;;;;;5079938;28;20072;-77
2023/06/24 12:27:35;;;;;;;5.18;3.30;;;;;;;;;;5076770;28;20080;-76
2023/06/24 12:30:02;;;;;;;4.68;3.15;;;;;;;;;;5071932;28;20044;-77
2023/06/24 12:32:30;;;;;;;5.18;3.35;;;;;;;;;;5081093;28;20048;-78
2023/06/24 12:34:56;;;;;;;5.47;3.67;;;;;;;;;;5075320;28;20048;-78
2023/06/24 12:37:23;;;;;;;4.78;3.13;;;;;;;;;;5071912;28;20049;-78
2023/06/24 12:39:52;;;;;;;5.18;3.30;;;;;;;;;;5071419;28;20135;-77
2023/06/24 12:42:18;;;;;;;5.47;3.60;;;;;;;;;;5073826;28;20045;-76
2023/06/24 12:44:45;;;;;;;4.25;3.28;;;;;;;;;;5075938;28;20559;-78
2023/06/24 12:47:13;;;;;;;5.22;3.20;;;;;;;;;;5077079;28;20044;-78
2023/06/24 12:49:41;;;;;;;5.38;3.83;;;;;;;;;;5078429;28;20055;-77
2023/06/24 12:52:08;;;;;;;4.93;3.40;;;;;;;;;;5085209;28;20132;-77
2023/06/24 12:54:35;;;;;;;6.93;3.60;;;;;;;;;;5084988;28;20070;-79
2023/06/24 12:59:28;;;;;;;6.40;3.40;;;;;;;;;;5061986;28;20060;-79
2023/06/24 13:01:55;;;;;;;5.30;3.15;;;;;;;;;;5069789;28;20148;-77
2023/06/24 13:04:23;;;;;;;5.00;3.10;;;;;;;;;;5085897;28;20056;-78
2023/06/24 13:06:52;;;;;;;4.53;3.20;;;;;;;;;;5089717;28;20044;-78
2023/06/24 13:09:19;;;;;;;4.78;3.40;;;;;;;;;;5088693;28;20076;-77
2023/06/24 13:11:46;;;;;;;5.22;3.42;;;;;;;;;;5089405;28;20052;-78
2023/06/24 13:14:13;;;;;;;4.90;3.30;;;;;;;;;;5083482;28;20068;-78
2023/06/24 13:16:39;;;;;;;5.75;3.60;;;;;;;;;;5082060;28;20071;-78
2023/06/24 13:19:06;;;;;;;5.63;3.38;;;;;;;;;;5082316;28;20076;-79
2023/06/24 13:21:33;;;;;;;5.25;3.13;;;;;;;;;;5069709;28;20132;-79
2023/06/24 13:24:01;;;;;;;4.78;3.03;;;;;;;;;;5060532;28;20080;-76
2023/06/24 13:26:28;;;;;;;4.50;3.17;;;;;;;;;;5056397;28;20048;-77
2023/06/24 13:28:54;;;;;;;5.55;3.40;;;;;;;;;;5051283;28;20108;-77
2023/06/24 13:31:21;;;;;;;6.30;3.53;;;;;;;;;;5055504;28;20041;-78
2023/06/24 13:33:48;;;;;;;5.22;3.05;;;;;;;;;;5045144;28;20088;-77
2023/06/24 13:36:32;;;;;;;5.28;3.60;;;;;;;;;;5039040;28;20046;-77
2023/06/24 13:38:59;;;;;;;6.22;3.63;;;;;;;;;;5058415;28;20701;-78
2023/06/24 13:41:29;;;;;;;5.35;3.78;;;;;;;;;;5059383;28;20045;-76
2023/06/24 13:44:04;;;;;;;5.00;3.28;;;;;;;;;;5057118;28;20149;-80
2023/06/24 13:46:31;;;;;;;5.40;3.40;;;;;;;;;;5061780;28;20048;-76
2023/06/24 13:48:58;;;;;;;5.35;3.25;;;;;;;;;;5054486;28;20059;-79
2023/06/24 13:51:26;;;;;;;4.75;3.25;;;;;;;;;;5057334;28;20087;-77
2023/06/24 13:53:54;;;;;;;6.20;3.20;;;;;;;;;;5056218;28;20079;-77
2023/06/24 13:56:22;;;;;;;5.00;3.53;;;;;;;;;;5058939;28;20084;-76
2023/06/24 13:58:51;;;;;;;9.27;6.55;;;;;;;;;;5075231;28;20119;-78
2023/06/24 14:01:18;;;;;;;438.25;258.33;;;;;;;;;;5064467;28;20077;-82
2023/06/24 14:03:45;;;;;;;192.10;113.20;;;;;;;;;;5052859;28;20536;-77
2023/06/24 14:06:14;;;;;;;30.45;19.55;;;;;;;;;;5060171;28;20056;-81
2023/06/24 14:08:41;;;;;;;18.80;10.68;;;;;;;;;;5057557;28;20045;-80
2023/06/24 14:11:08;;;;;;;14.40;9.27;;;;;;;;;;5050719;28;20496;-81
2023/06/24 14:13:36;;;;;;;26.02;13.45;;;;;;;;;;5060631;28;20213;-80
2023/06/24 14:16:05;;;;;;;32.95;20.02;;;;;;;;;;5050676;28;20045;-77
2023/06/24 14:18:32;;;;;;;9.33;5.23;;;;;;;;;;5050020;28;20571;-76
2023/06/24 14:20:59;;;;;;;8.52;4.72;;;;;;;;;;5049632;28;20049;-77
2023/06/24 14:23:26;;;;;;;7.10;5.00;;;;;;;;;;5049058;28;20045;-76
2023/06/24 14:25:52;;;;;;;7.75;4.85;;;;;;;;;;5048380;28;20049;-77
2023/06/24 14:28:19;;;;;;;8.95;5.78;;;;;;;;;;5054511;28;20079;-77
2023/06/24 14:30:46;;;;;;;11.20;7.10;;;;;;;;;;5054088;28;20045;-76
2023/06/24 14:33:14;;;;;;;6.35;4.45;;;;;;;;;;5037984;28;20041;-77
2023/06/24 14:35:41;;;;;;;4.85;3.70;;;;;;;;;;5043556;28;20056;-77
2023/06/24 14:38:08;;;;;;;5.80;3.65;;;;;;;;;;5050860;28;20172;-77
2023/06/24 14:40:35;;;;;;;5.85;3.97;;;;;;;;;;5053519;28;20084;-78
2023/06/24 14:43:02;;;;;;;4.88;3.67;;;;;;;;;;5055571;28;20575;-77
2023/06/24 14:45:28;;;;;;;5.00;3.95;;;;;;;;;;5056136;28;20106;-77
2023/06/24 14:47:55;;;;;;;5.82;3.55;;;;;;;;;;5055378;28;20083;-77
2023/06/24 14:50:23;;;;;;;4.78;3.30;;;;;;;;;;5053813;28;20563;-78